Time;durP1;ratioP1;P1;durP2;ratioP2;P2;SDS_P1;SDS_P2;PMS_P1;PMS_P2;Temp;Humidity;BMP_temperature;BMP_pressure;BME280_temperature;BME280_humidity;BME280_pressure;Samples;Min_cycle;Max_cycle;Signal;HPM_P1;HPM_P2
2021/08/09 00:01:37;;;;;;;1.17;0.85;;;;;;;23.21;67.16;99854.75;4439773;32;33912;-81
2021/08/09 00:04:05;;;;;;;1.12;0.90;;;;;;;23.16;67.44;99870.50;4440114;32;34003;-82
2021/08/09 00:06:33;;;;;;;1.80;1.20;;;;;;;22.96;67.86;99879.63;4440271;32;34734;-82
2021/08/09 00:09:02;;;;;;;0.45;0.45;;;;;;;22.88;67.71;99879.47;4452335;32;33830;-82
2021/08/09 00:11:30;;;;;;;0.88;0.65;;;;;;;23.15;66.07;99890.34;4439872;32;33471;-81
2021/08/09 00:13:58;;;;;;;0.60;0.60;;;;;;;22.85;66.51;99901.31;4452613;32;33584;-81
2021/08/09 00:16:26;;;;;;;1.30;0.70;;;;;;;22.61;68.12;99916.03;4452246;32;35108;-82
2021/08/09 00:18:53;;;;;;;0.88;0.70;;;;;;;22.63;67.89;99908.66;4439612;32;33714;-81
2021/08/09 00:21:21;;;;;;;0.75;0.65;;;;;;;22.32;69.09;99909.78;4450604;32;33097;-82
2021/08/09 00:23:49;;;;;;;1.70;1.02;;;;;;;22.63;67.56;99922.13;4452748;32;33452;-81
2021/08/09 00:26:19;;;;;;;3.25;1.08;;;;;;;22.37;68.44;99915.59;4439577;32;33928;-81
2021/08/09 00:28:47;;;;;;;0.88;0.62;;;;;;;22.38;68.13;99917.28;4446181;32;32870;-81
2021/08/09 00:31:15;;;;;;;2.70;1.37;;;;;;;22.53;67.31;99918.56;4449389;32;34108;-82
2021/08/09 00:33:43;;;;;;;1.50;0.70;;;;;;;22.13;68.75;99932.13;4442370;32;33167;-81
2021/08/09 00:36:10;;;;;;;1.33;0.80;;;;;;;22.15;68.59;99920.22;4430366;32;34844;-82
2021/08/09 00:38:39;;;;;;;1.08;0.82;;;;;;;22.13;68.85;99913.28;4447040;32;33817;-81
2021/08/09 00:41:08;;;;;;;0.57;0.57;;;;;;;22.27;67.68;99917.44;4434461;32;33740;-82
2021/08/09 00:43:37;;;;;;;1.50;0.88;;;;;;;22.32;67.48;99917.84;4430857;32;32867;-81
2021/08/09 00:46:06;;;;;;;1.25;0.80;;;;;;;22.47;66.69;99919.16;4416800;32;33288;-81
2021/08/09 00:48:34;;;;;;;0.82;0.50;;;;;;;22.60;66.16;99919.72;4450913;32;34696;-82
2021/08/09 00:51:03;;;;;;;1.30;0.90;;;;;;;22.42;66.65;99933.03;4417884;32;32229;-81
2021/08/09 00:53:33;;;;;;;1.37;0.60;;;;;;;22.37;67.05;99935.28;4436817;32;33604;-82
2021/08/09 00:56:03;;;;;;;0.77;0.70;;;;;;;22.06;67.42;99941.69;4436789;32;34794;-82
2021/08/09 00:58:33;;;;;;;0.80;0.50;;;;;;;22.06;67.25;99942.53;4424106;32;32998;-82
2021/08/09 01:01:00;;;;;;;1.15;0.70;;;;;;;21.96;67.61;99936.28;4436652;32;33808;-82
2021/08/09 01:03:28;;;;;;;1.33;0.77;;;;;;;21.91;68.18;99935.81;4428966;32;32819;-81
2021/08/09 01:05:56;;;;;;;0.73;0.68;;;;;;;21.95;67.04;99935.41;4398863;32;33010;-82
2021/08/09 01:08:49;;;;;;;0.60;0.60;;;;;;;21.85;67.18;99939.91;4423923;32;33891;-81
2021/08/09 01:11:26;;;;;;;0.50;0.50;;;;;;;21.98;67.36;99943.22;4437577;32;33395;-82
2021/08/09 01:14:13;;;;;;;1.00;0.75;;;;;;;22.04;67.04;99944.50;4434504;32;33981;-82
2021/08/09 01:16:43;;;;;;;0.70;0.40;;;;;;;22.05;65.76;99945.34;4429352;32;33020;-82
2021/08/09 01:19:23;;;;;;;0.50;0.43;;;;;;;21.86;67.11;99956.91;4436493;32;34090;-82
2021/08/09 01:21:58;;;;;;;1.90;0.73;;;;;;;21.76;67.83;99947.94;4421234;32;32691;-81
2021/08/09 01:24:38;;;;;;;0.70;0.60;;;;;;;21.85;67.48;99961.41;4435792;32;33838;-82
2021/08/09 01:27:26;;;;;;;1.80;0.70;;;;;;;22.03;67.05;99953.56;4411278;32;33483;-82
2021/08/09 01:29:54;;;;;;;0.68;0.55;;;;;;;22.04;66.08;99952.56;4423282;32;33788;-82
2021/08/09 01:32:22;;;;;;;0.95;0.80;;;;;;;22.11;65.81;99961.81;4438383;32;33006;-81
2021/08/09 01:34:51;;;;;;;0.55;0.43;;;;;;;22.07;64.54;99965.72;4438444;32;32315;-82
2021/08/09 01:37:20;;;;;;;3.40;0.35;;;;;;;21.62;65.96;99965.28;4418345;32;34334;-81
2021/08/09 01:39:49;;;;;;;2.67;0.45;;;;;;;21.65;66.30;99976.63;4438563;32;33102;-82
2021/08/09 01:42:17;;;;;;;0.62;0.43;;;;;;;21.72;64.75;99971.53;4438783;32;33397;-81
2021/08/09 01:44:46;;;;;;;1.85;0.70;;;;;;;21.28;65.67;99968.16;4420226;32;31782;-81
2021/08/09 01:47:16;;;;;;;0.57;0.32;;;;;;;21.48;64.93;99970.00;4432822;32;32141;-82
2021/08/09 01:49:45;;;;;;;0.70;0.60;;;;;;;21.51;64.53;99955.47;4417469;32;33848;-82
2021/08/09 01:52:13;;;;;;;0.98;0.40;;;;;;;21.40;65.30;99952.84;4448651;32;34110;-81
2021/08/09 01:54:43;;;;;;;0.93;0.55;;;;;;;21.23;65.11;99960.50;4441519;32;33966;-81
2021/08/09 01:57:10;;;;;;;1.80;0.98;;;;;;;21.44;64.79;99960.50;4428050;32;33210;-82
2021/08/09 01:59:38;;;;;;;0.77;0.50;;;;;;;21.24;64.75;99961.34;4455327;32;33505;-82
2021/08/09 02:02:06;;;;;;;1.85;0.77;;;;;;;21.37;64.94;99961.19;4428287;32;32311;-82
2021/08/09 02:04:34;;;;;;;2.00;0.88;;;;;;;21.44;64.23;99973.09;4441035;32;34065;-82
2021/08/09 02:07:02;;;;;;;0.62;0.60;;;;;;;21.14;64.83;99981.91;4440795;32;33746;-82
2021/08/09 02:09:30;;;;;;;0.82;0.77;;;;;;;21.17;65.69;99981.62;4440564;32;34441;-82
2021/08/09 02:12:06;;;;;;;0.68;0.55;;;;;;;21.04;66.23;99987.19;4440763;32;33209;-82
2021/08/09 02:14:40;;;;;;;0.65;0.50;;;;;;;21.03;66.29;99992.69;4439831;32;32841;-82
2021/08/09 02:17:21;;;;;;;1.00;0.82;;;;;;;21.06;65.94;99995.97;4453447;32;33709;-82
2021/08/09 02:19:56;;;;;;;0.50;0.40;;;;;;;21.06;65.46;100005.84;4453583;32;33827;-82
2021/08/09 02:22:43;;;;;;;1.30;0.90;;;;;;;21.09;65.75;100000.25;4438834;32;32956;-82
2021/08/09 02:25:15;;;;;;;2.00;1.20;;;;;;;20.77;66.47;100006.47;4440616;32;32880;-82
2021/08/09 02:27:49;;;;;;;1.67;0.60;;;;;;;20.80;66.18;100010.72;4441071;32;33612;-82
2021/08/09 02:30:20;;;;;;;2.65;0.80;;;;;;;20.91;65.90;100026.78;4440755;32;32583;-82
2021/08/09 02:32:51;;;;;;;1.12;0.60;;;;;;;20.63;67.03;100025.53;4436662;32;32613;-81
2021/08/09 02:35:21;;;;;;;1.62;0.55;;;;;;;21.00;65.10;100017.13;4427716;32;33102;-82
2021/08/09 02:37:50;;;;;;;1.33;0.68;;;;;;;20.68;65.96;100024.16;4440944;32;34022;-81
2021/08/09 02:40:19;;;;;;;0.73;0.50;;;;;;;20.75;64.84;100018.28;4453122;32;33672;-82
2021/08/09 02:42:47;;;;;;;1.12;0.65;;;;;;;20.56;66.53;100025.19;4453273;32;33426;-82
2021/08/09 02:45:16;;;;;;;0.60;0.60;;;;;;;20.27;66.79;100029.31;4427961;32;33773;-82
2021/08/09 02:47:45;;;;;;;0.50;0.40;;;;;;;20.15;66.84;100045.41;4427875;32;32927;-81
2021/08/09 02:50:13;;;;;;;0.68;0.57;;;;;;;20.17;67.20;100048.81;4428157;32;32783;-82
2021/08/09 02:52:42;;;;;;;0.85;0.75;;;;;;;20.46;66.05;100053.69;4453611;32;33010;-81
2021/08/09 02:55:10;;;;;;;2.10;0.65;;;;;;;20.45;66.06;100049.28;4427591;32;32724;-81
2021/08/09 02:57:39;;;;;;;1.30;0.60;;;;;;;20.65;64.50;100051.25;4453431;32;34473;-81
2021/08/09 03:00:07;;;;;;;1.30;0.50;;;;;;;20.64;65.06;100052.22;4427444;32;33248;-81
2021/08/09 03:02:36;;;;;;;0.82;0.55;;;;;;;20.62;64.86;100043.47;4453144;32;32642;-82
2021/08/09 03:05:08;;;;;;;1.33;0.70;;;;;;;20.71;65.46;100050.75;4440703;32;34024;-81
2021/08/09 03:07:41;;;;;;;1.85;0.60;;;;;;;20.77;64.94;100045.84;4440329;32;33491;-81
2021/08/09 03:10:10;;;;;;;0.47;0.30;;;;;;;20.83;65.57;100042.66;4453483;32;34494;-81
2021/08/09 03:12:43;;;;;;;1.10;0.45;;;;;;;21.04;63.53;100040.06;4453196;32;33972;-81
2021/08/09 03:15:11;;;;;;;1.55;0.60;;;;;;;20.95;62.79;100041.66;4428377;32;33290;-81
2021/08/09 03:17:39;;;;;;;1.25;0.62;;;;;;;20.59;65.57;100045.53;4440533;32;34347;-81
2021/08/09 03:20:08;;;;;;;1.50;0.50;;;;;;;20.76;63.29;100052.22;4440215;32;32735;-81
2021/08/09 03:22:35;;;;;;;0.50;0.40;;;;;;;20.77;64.26;100041.34;4452749;32;32527;-81
2021/08/09 03:25:04;;;;;;;0.93;0.50;;;;;;;20.66;64.90;100055.66;4439869;32;34736;-81
2021/08/09 03:27:32;;;;;;;0.90;0.60;;;;;;;20.74;64.17;100056.84;4439999;32;34353;-82
2021/08/09 03:30:00;;;;;;;0.90;0.28;;;;;;;20.73;62.60;100063.19;4440306;32;32803;-81
2021/08/09 03:32:28;;;;;;;3.65;0.88;;;;;;;20.81;62.60;100058.06;4439890;32;32406;-82
2021/08/09 03:34:56;;;;;;;3.37;0.65;;;;;;;21.09;61.76;100045.88;4440448;32;32850;-81
2021/08/09 03:37:24;;;;;;;0.40;0.40;;;;;;;20.63;63.96;100057.72;4452988;32;33668;-81
2021/08/09 03:39:52;;;;;;;0.95;0.68;;;;;;;20.56;63.51;100054.69;4440300;32;32959;-81
2021/08/09 03:42:20;;;;;;;5.15;0.60;;;;;;;20.47;63.32;100052.75;4439546;32;32831;-81
2021/08/09 03:44:48;;;;;;;1.98;1.00;;;;;;;20.62;62.95;100064.06;4440091;32;34113;-82
2021/08/09 03:47:15;;;;;;;0.43;0.43;;;;;;;20.59;63.57;100065.16;4439815;32;35050;-81
2021/08/09 03:49:43;;;;;;;0.60;0.32;;;;;;;20.60;62.76;100058.81;4453086;32;33841;-81
2021/08/09 03:52:11;;;;;;;2.47;0.50;;;;;;;20.74;61.72;100059.50;4439120;32;33421;-81
2021/08/09 03:54:39;;;;;;;1.02;0.65;;;;;;;20.45;63.61;100076.12;4439994;32;34009;-82
2021/08/09 03:57:06;;;;;;;0.70;0.40;;;;;;;20.64;62.24;100062.94;4440594;32;33725;-81
2021/08/09 03:59:34;;;;;;;1.00;0.50;;;;;;;20.50;62.56;100057.00;4452874;32;33505;-81
2021/08/09 04:02:02;;;;;;;1.77;0.57;;;;;;;20.40;63.16;100060.38;4452405;32;33128;-81
2021/08/09 04:04:30;;;;;;;1.65;0.50;;;;;;;20.62;61.98;100056.88;4439622;32;33990;-81
2021/08/09 04:06:57;;;;;;;0.98;0.50;;;;;;;20.61;62.99;100060.53;4452474;32;34095;-81
2021/08/09 04:09:25;;;;;;;0.93;0.70;;;;;;;20.69;62.08;100068.78;4426818;32;32757;-81
2021/08/09 04:11:53;;;;;;;1.33;0.60;;;;;;;20.66;62.95;100069.06;4452770;32;32471;-81
2021/08/09 04:14:20;;;;;;;1.23;0.50;;;;;;;20.92;61.54;100079.47;4452632;32;32839;-81
2021/08/09 04:16:49;;;;;;;0.65;0.47;;;;;;;21.12;nan;100076.00;4452864;32;34579;-81
2021/08/09 04:19:17;;;;;;;1.08;0.60;;;;;;;20.88;61.64;100083.38;4452735;32;33874;-81
2021/08/09 04:21:44;;;;;;;0.68;0.60;;;;;;;21.13;61.04;100093.81;4427194;32;33761;-81
2021/08/09 04:24:12;;;;;;;2.50;0.82;;;;;;;21.20;60.50;100097.69;4452512;32;33856;-81
2021/08/09 04:26:40;;;;;;;0.88;0.47;;;;;;;21.04;61.33;100104.47;4439568;32;33303;-81
2021/08/09 04:29:08;;;;;;;1.77;0.77;;;;;;;21.13;61.52;100104.56;4452554;32;33990;-81
2021/08/09 04:31:41;;;;;;;0.98;0.70;;;;;;;20.81;62.30;100092.94;4426406;32;32444;-81
2021/08/09 04:34:09;;;;;;;1.00;0.93;;;;;;;20.80;61.90;100101.97;4439637;32;33141;-81
2021/08/09 04:36:37;;;;;;;1.10;0.50;;;;;;;21.08;61.37;100101.41;4446878;32;33371;-81
2021/08/09 04:39:04;;;;;;;2.83;0.88;;;;;;;21.28;60.32;100097.06;4426713;32;33137;-81
2021/08/09 04:41:32;;;;;;;2.58;0.80;;;;;;;21.33;60.49;100110.16;4452648;32;34350;-81
2021/08/09 04:44:06;;;;;;;2.40;0.50;;;;;;;21.26;60.63;100111.59;4439118;32;34337;-81
2021/08/09 04:46:34;;;;;;;1.37;0.80;;;;;;;21.23;61.00;100112.72;4452459;32;34132;-81
2021/08/09 04:49:02;;;;;;;0.75;0.50;;;;;;;20.91;62.63;100104.63;4439796;32;34443;-81
2021/08/09 04:51:30;;;;;;;2.05;0.60;;;;;;;21.27;61.29;100090.00;4423291;32;33360;-81
2021/08/09 04:53:58;;;;;;;1.27;0.50;;;;;;;21.38;60.97;100097.19;4436962;32;33994;-81
2021/08/09 04:56:26;;;;;;;2.05;0.80;;;;;;;21.46;60.01;100094.72;4432972;32;33054;-81
2021/08/09 04:58:54;;;;;;;1.20;0.50;;;;;;;21.52;60.16;100093.34;4423977;32;33070;-81
2021/08/09 05:01:22;;;;;;;0.60;0.55;;;;;;;21.45;61.28;100087.59;4423834;32;32391;-81
2021/08/09 05:03:49;;;;;;;0.45;0.37;;;;;;;21.20;62.58;100089.62;4438060;32;34592;-81
2021/08/09 05:06:18;;;;;;;4.87;1.17;;;;;;;21.20;61.03;100083.41;4412913;32;34390;-81
2021/08/09 05:08:46;;;;;;;2.97;0.90;;;;;;;21.35;60.13;100075.94;4438863;32;33498;-81
2021/08/09 05:11:14;;;;;;;1.12;0.90;;;;;;;21.31;60.34;100079.84;4425098;32;33735;-81
2021/08/09 05:13:49;;;;;;;0.75;0.60;;;;;;;21.39;60.50;100078.25;4426309;32;34283;-81
2021/08/09 05:16:16;;;;;;;1.17;0.57;;;;;;;21.41;61.24;100076.28;4438245;32;33458;-81
2021/08/09 05:18:44;;;;;;;0.50;0.40;;;;;;;21.10;61.90;100080.66;4438269;32;33849;-81
2021/08/09 05:21:16;;;;;;;3.17;0.52;;;;;;;21.73;59.71;100075.38;4438350;32;33162;-82
2021/08/09 05:23:45;;;;;;;4.25;0.95;;;;;;;21.90;59.43;100084.69;4425879;32;33023;-81
2021/08/09 05:26:14;;;;;;;1.00;0.37;;;;;;;22.05;58.51;100086.03;4438423;32;33094;-81
2021/08/09 05:28:41;;;;;;;2.05;0.60;;;;;;;21.95;59.07;100085.13;4438322;32;33435;-81
2021/08/09 05:31:09;;;;;;;1.17;0.85;;;;;;;22.04;59.19;100088.88;4435552;32;32213;-81
2021/08/09 05:33:38;;;;;;;0.98;0.57;;;;;;;22.02;58.78;100088.13;4438174;32;34595;-81
2021/08/09 05:36:06;;;;;;;0.80;0.60;;;;;;;22.13;59.80;100088.94;4430706;32;33975;-81
2021/08/09 05:38:34;;;;;;;1.62;0.80;;;;;;;22.33;57.62;100097.09;4420284;32;34660;-81
2021/08/09 05:41:03;;;;;;;1.37;0.60;;;;;;;22.05;59.81;100091.41;4428442;32;33457;-81
2021/08/09 05:43:31;;;;;;;1.15;0.60;;;;;;;22.40;57.79;100095.56;4432209;32;34022;-81
2021/08/09 05:45:58;;;;;;;0.47;0.40;;;;;;;22.72;57.39;100098.94;4430753;32;33944;-81
2021/08/09 05:48:27;;;;;;;2.45;0.60;;;;;;;22.72;57.58;100107.00;4425850;32;34350;-82
2021/08/09 05:50:55;;;;;;;1.35;0.40;;;;;;;22.82;56.48;100109.72;4430375;32;32937;-81
2021/08/09 05:53:27;;;;;;;0.98;0.65;;;;;;;22.69;57.95;100112.69;4438322;32;35107;-81
2021/08/09 05:55:55;;;;;;;2.35;0.62;;;;;;;22.50;56.73;100115.28;4434289;32;34393;-81
2021/08/09 05:58:23;;;;;;;1.58;0.52;;;;;;;22.86;57.52;100113.00;4424921;32;33811;-81
2021/08/09 06:00:51;;;;;;;1.23;0.50;;;;;;;22.80;56.26;100113.56;4439226;32;33003;-81
2021/08/09 06:03:22;;;;;;;1.92;0.60;;;;;;;22.94;55.59;100111.34;4438219;32;34197;-81
2021/08/09 06:05:52;;;;;;;2.85;0.57;;;;;;;22.99;55.92;100110.94;4439619;32;34455;-81
2021/08/09 06:08:22;;;;;;;0.55;0.50;;;;;;;22.90;56.45;100109.06;4438688;32;34483;-81
2021/08/09 06:10:50;;;;;;;0.30;0.30;;;;;;;22.82;56.34;100116.94;4438177;32;33466;-81
2021/08/09 06:13:17;;;;;;;1.17;0.55;;;;;;;23.11;54.74;100117.88;4412838;32;32510;-81
2021/08/09 06:15:45;;;;;;;0.80;0.47;;;;;;;23.25;55.05;100117.47;4438455;32;33911;-81
2021/08/09 06:18:13;;;;;;;2.87;0.77;;;;;;;23.51;54.42;100119.63;4425506;32;32873;-81
2021/08/09 06:20:41;;;;;;;0.95;0.43;;;;;;;23.68;54.66;100116.22;4437688;32;33471;-82
2021/08/09 06:23:09;;;;;;;1.65;0.40;;;;;;;23.86;54.72;100112.81;4437621;32;33960;-81
2021/08/09 06:25:38;;;;;;;1.15;0.55;;;;;;;24.03;54.08;100114.78;4437862;32;33984;-82
2021/08/09 06:28:06;;;;;;;1.05;0.45;;;;;;;24.10;52.90;100123.97;4425261;32;33502;-81
2021/08/09 06:30:34;;;;;;;1.17;0.50;;;;;;;23.90;53.10;100125.00;4425456;32;34301;-81
2021/08/09 06:33:02;;;;;;;1.77;0.60;;;;;;;23.85;53.68;100116.50;4424804;32;33893;-81
2021/08/09 06:35:30;;;;;;;1.20;0.62;;;;;;;24.05;52.41;100131.66;4425052;32;33533;-81
2021/08/09 06:37:58;;;;;;;1.12;0.50;;;;;;;24.40;53.14;100127.44;4425162;32;34556;-81
2021/08/09 06:40:26;;;;;;;1.40;0.60;;;;;;;24.37;52.33;100128.63;4424909;32;32692;-81
2021/08/09 06:42:53;;;;;;;1.80;0.75;;;;;;;24.37;52.59;100131.31;4435835;32;33630;-81
2021/08/09 06:45:22;;;;;;;2.47;0.62;;;;;;;24.53;51.86;100130.66;4437383;32;34578;-81
2021/08/09 06:47:51;;;;;;;1.17;0.55;;;;;;;24.41;52.84;100139.97;4425553;32;32690;-81
2021/08/09 06:50:20;;;;;;;0.95;0.68;;;;;;;24.15;52.25;100135.16;4425058;32;33014;-81
2021/08/09 06:52:48;;;;;;;0.98;0.43;;;;;;;24.70;51.90;100134.44;4449668;32;34073;-81
2021/08/09 06:55:16;;;;;;;2.45;0.73;;;;;;;24.71;50.94;100128.03;4440290;32;34715;-81
2021/08/09 06:57:44;;;;;;;0.93;0.77;;;;;;;24.68;50.35;100131.03;4440522;32;33838;-81
2021/08/09 07:00:12;;;;;;;1.17;0.50;;;;;;;24.96;50.61;100124.63;4427207;32;32241;-81
2021/08/09 07:02:40;;;;;;;1.35;0.70;;;;;;;25.02;50.28;100129.44;4453568;32;34821;-81
2021/08/09 07:05:08;;;;;;;1.50;0.60;;;;;;;24.86;50.21;100117.56;4440341;32;33780;-81
2021/08/09 07:07:38;;;;;;;0.75;0.57;;;;;;;25.15;50.58;100118.25;4453240;32;33541;-81
2021/08/09 07:10:06;;;;;;;1.17;0.70;;;;;;;24.72;50.56;100125.19;4440205;32;33503;-81
2021/08/09 07:12:39;;;;;;;1.30;0.50;;;;;;;25.20;49.82;100126.75;4453393;32;34465;-81
2021/08/09 07:15:07;;;;;;;0.85;0.60;;;;;;;25.49;48.59;100114.87;4452966;32;33833;-82
2021/08/09 07:17:42;;;;;;;0.90;0.45;;;;;;;25.76;49.34;100109.41;4414808;32;33901;-81
2021/08/09 07:20:10;;;;;;;1.12;0.60;;;;;;;25.77;47.69;100119.19;4451557;32;33411;-81
2021/08/09 07:22:45;;;;;;;3.33;0.62;;;;;;;25.84;48.66;100107.78;4452698;32;33780;-81
2021/08/09 07:25:15;;;;;;;1.40;0.40;;;;;;;25.77;47.80;100119.19;4440287;32;34095;-81
2021/08/09 07:27:42;;;;;;;1.00;0.70;;;;;;;25.72;47.73;100116.09;4449047;32;33187;-81
2021/08/09 07:30:12;;;;;;;1.20;0.45;;;;;;;25.75;47.45;100113.12;4452819;32;33738;-81
2021/08/09 07:32:41;;;;;;;1.05;0.75;;;;;;;26.03;47.97;100115.69;4440386;32;34084;-81
2021/08/09 07:35:09;;;;;;;1.00;0.50;;;;;;;26.19;48.04;100113.06;4452816;32;35131;-82
2021/08/09 07:37:41;;;;;;;1.00;0.68;;;;;;;26.41;47.56;100111.69;4453131;32;33771;-81
2021/08/09 07:40:10;;;;;;;0.55;0.50;;;;;;;26.50;46.85;100118.03;4427278;32;33670;-81
2021/08/09 07:42:37;;;;;;;3.37;0.50;;;;;;;26.48;46.69;100114.59;4414629;32;34366;-81
2021/08/09 07:45:06;;;;;;;1.23;0.60;;;;;;;26.37;47.03;100117.56;4427351;32;33209;-81
2021/08/09 07:47:34;;;;;;;0.88;0.50;;;;;;;26.32;46.54;100115.34;4439982;32;34304;-81
2021/08/09 07:50:02;;;;;;;0.80;0.60;;;;;;;26.77;47.04;100112.34;4440605;32;33918;-81
2021/08/09 07:52:30;;;;;;;3.17;0.77;;;;;;;26.63;45.99;100114.84;4440137;32;33330;-81
2021/08/09 07:54:58;;;;;;;3.97;0.52;;;;;;;26.95;44.76;100103.28;4440081;32;33432;-81
2021/08/09 07:57:26;;;;;;;0.80;0.70;;;;;;;26.65;46.09;100102.84;4439857;32;33546;-81
2021/08/09 07:59:54;;;;;;;4.15;0.75;;;;;;;26.78;46.14;100114.09;4440564;32;33993;-81
2021/08/09 08:02:22;;;;;;;0.73;0.50;;;;;;;26.77;45.65;100103.38;4452170;32;34021;-81
2021/08/09 08:04:52;;;;;;;1.77;0.80;;;;;;;26.94;45.72;100112.44;4453105;32;34158;-81
2021/08/09 08:07:19;;;;;;;1.87;0.50;;;;;;;26.85;45.21;100114.25;4451644;32;34502;-81
2021/08/09 08:09:50;;;;;;;0.82;0.60;;;;;;;27.19;45.44;100118.78;4423520;32;32363;-81
2021/08/09 08:12:18;;;;;;;1.70;0.57;;;;;;;27.25;45.58;100128.94;4440077;32;33794;-81
2021/08/09 08:14:46;;;;;;;0.88;0.50;;;;;;;27.15;45.27;100120.97;4439883;32;34065;-81
2021/08/09 08:17:14;;;;;;;0.60;0.55;;;;;;;27.37;44.10;100124.91;4427220;32;32490;-81
2021/08/09 08:19:42;;;;;;;1.00;0.50;;;;;;;27.52;43.37;100128.66;4440069;32;33577;-81
2021/08/09 08:22:11;;;;;;;0.47;0.43;;;;;;;27.73;42.84;100124.66;4440088;32;33572;-81
2021/08/09 08:24:40;;;;;;;1.52;0.60;;;;;;;27.73;43.43;100130.91;4452464;32;35037;-81
2021/08/09 08:27:08;;;;;;;0.55;0.37;;;;;;;27.78;45.12;100133.97;4452350;32;33181;-81
2021/08/09 08:29:36;;;;;;;0.70;0.52;;;;;;;27.74;43.64;100137.19;4439577;32;32898;-81
2021/08/09 08:32:04;;;;;;;3.10;0.60;;;;;;;28.15;44.33;100140.69;4453951;32;33999;-81
2021/08/09 08:34:35;;;;;;;0.52;0.50;;;;;;;27.97;43.27;100149.06;4452205;32;34902;-82
2021/08/09 08:37:03;;;;;;;1.27;0.88;;;;;;;28.07;42.69;100154.31;4439641;32;34006;-81
2021/08/09 08:39:31;;;;;;;0.93;0.50;;;;;;;27.89;42.19;100150.91;4439207;32;33377;-81
2021/08/09 08:41:59;;;;;;;0.55;0.37;;;;;;;27.94;42.55;100156.69;4452301;32;34728;-81
2021/08/09 08:44:28;;;;;;;0.93;0.60;;;;;;;28.21;42.20;100166.31;4426821;32;35058;-81
2021/08/09 08:46:56;;;;;;;1.23;0.80;;;;;;;28.14;41.82;100166.16;4450382;32;33566;-81
2021/08/09 08:49:26;;;;;;;1.10;0.65;;;;;;;28.49;41.64;100164.09;4427485;32;33726;-81
2021/08/09 08:51:54;;;;;;;0.37;0.37;;;;;;;28.51;40.97;100170.19;4449435;32;94796;-81
2021/08/09 08:54:22;;;;;;;1.65;0.57;;;;;;;28.92;41.57;100164.62;4439744;32;35008;-81
2021/08/09 08:56:50;;;;;;;3.50;0.60;;;;;;;29.10;40.83;100170.66;4449309;32;33734;-81
2021/08/09 08:59:20;;;;;;;2.22;0.50;;;;;;;29.38;41.79;100164.72;4451974;32;34008;-81
2021/08/09 09:01:49;;;;;;;4.68;0.62;;;;;;;29.40;40.60;100168.12;4439022;32;34031;-82
2021/08/09 09:04:28;;;;;;;0.62;0.62;;;;;;;29.34;38.39;100175.97;4439567;32;35200;-81
2021/08/09 09:06:59;;;;;;;0.70;0.45;;;;;;;29.65;40.55;100166.94;4425024;32;32877;-81
2021/08/09 09:09:29;;;;;;;0.47;0.40;;;;;;;29.72;39.37;100167.06;4443918;32;33349;-81
2021/08/09 09:11:57;;;;;;;0.43;0.40;;;;;;;29.53;39.41;100168.34;4442418;32;33990;-82
2021/08/09 09:14:31;;;;;;;2.05;0.90;;;;;;;30.02;39.61;100174.31;4448049;32;32545;-81
2021/08/09 09:17:00;;;;;;;1.20;0.70;;;;;;;30.21;38.57;100167.53;4438170;32;34320;-82
2021/08/09 09:19:34;;;;;;;2.55;0.60;;;;;;;29.69;38.97;100168.28;4451495;32;33525;-81
2021/08/09 09:22:07;;;;;;;1.10;0.60;;;;;;;30.18;37.18;100172.47;4451455;32;34099;-81
2021/08/09 09:24:36;;;;;;;0.70;0.60;;;;;;;30.15;37.97;100167.41;4450586;32;34368;-81
2021/08/09 09:27:08;;;;;;;1.00;0.90;;;;;;;30.01;39.79;100163.59;4452114;32;33610;-82
2021/08/09 09:29:40;;;;;;;1.02;0.50;;;;;;;30.31;39.83;100167.25;4451882;32;33580;-81
2021/08/09 09:32:14;;;;;;;;;;;;;;;29.95;39.69;100172.47;4439147;32;34238;-82
2021/08/09 09:34:50;;;;;;;0.90;0.80;;;;;;;30.58;37.88;100163.03;4452931;32;34423;-81
2021/08/09 09:37:23;;;;;;;0.93;0.60;;;;;;;30.67;35.37;100167.38;4448080;32;34040;-81
2021/08/09 09:39:51;;;;;;;1.15;0.50;;;;;;;30.55;38.40;100169.69;4451604;32;34083;-81
2021/08/09 09:42:20;;;;;;;0.98;0.57;;;;;;;30.59;37.92;100159.28;4451694;32;34323;-81
2021/08/09 09:44:47;;;;;;;0.82;0.45;;;;;;;30.72;38.74;100164.12;4451910;32;33929;-82
2021/08/09 09:47:23;;;;;;;1.65;0.80;;;;;;;30.90;38.08;100160.97;4451423;32;33906;-82
2021/08/09 09:49:56;;;;;;;0.60;0.55;;;;;;;30.96;35.75;100171.12;4453175;32;34087;-81
2021/08/09 09:52:36;;;;;;;0.80;0.60;;;;;;;30.99;35.55;100168.00;4449945;32;33970;-82
2021/08/09 09:55:09;;;;;;;0.68;0.60;;;;;;;31.10;37.03;100173.00;4441249;32;33173;-81
2021/08/09 09:57:38;;;;;;;1.08;0.60;;;;;;;31.11;36.71;100171.94;4453602;32;33946;-82
2021/08/09 10:00:12;;;;;;;0.80;0.55;;;;;;;30.83;38.53;100171.81;4453847;32;33109;-81
2021/08/09 10:02:42;;;;;;;1.73;0.80;;;;;;;30.70;35.83;100172.44;4437675;32;34160;-81
2021/08/09 10:05:10;;;;;;;1.17;0.82;;;;;;;31.05;34.53;100173.56;4453701;32;34844;-81
2021/08/09 10:07:39;;;;;;;1.12;0.75;;;;;;;30.92;35.01;100170.66;4445361;32;34257;-81
2021/08/09 10:10:09;;;;;;;0.60;0.43;;;;;;;30.62;37.02;100177.97;4426119;32;33704;-81
2021/08/09 10:12:38;;;;;;;0.85;0.75;;;;;;;30.93;38.72;100177.81;4453664;32;34686;-81
2021/08/09 10:15:07;;;;;;;1.08;0.80;;;;;;;30.83;35.74;100183.53;4453373;32;32974;-81
2021/08/09 10:17:36;;;;;;;1.67;0.95;;;;;;;30.71;37.17;100179.59;4453691;32;33874;-82
2021/08/09 10:20:09;;;;;;;0.68;0.60;;;;;;;30.35;38.07;100185.75;4428521;32;33710;-81
2021/08/09 10:22:38;;;;;;;0.45;0.37;;;;;;;30.59;37.91;100178.34;4440257;32;34800;-82
2021/08/09 10:25:06;;;;;;;1.08;0.65;;;;;;;31.20;36.85;100179.00;4454489;32;34057;-81
2021/08/09 10:27:51;;;;;;;0.73;0.60;;;;;;;30.97;34.65;100170.09;4429179;32;34429;-82
2021/08/09 10:30:24;;;;;;;1.62;0.68;;;;;;;30.66;38.45;100168.38;4447480;32;33882;-81
2021/08/09 10:32:55;;;;;;;1.10;0.82;;;;;;;31.42;34.65;100170.84;4453380;32;34623;-82
2021/08/09 10:35:44;;;;;;;2.47;0.80;;;;;;;31.68;33.97;100176.59;4440804;32;34179;-82
2021/08/09 10:38:13;;;;;;;0.82;0.70;;;;;;;31.71;33.39;100181.66;4452489;32;33841;-82
2021/08/09 10:41:08;;;;;;;1.98;0.88;;;;;;;32.08;34.78;100171.50;4453395;32;33439;-82
2021/08/09 10:43:40;;;;;;;0.75;0.60;;;;;;;32.06;34.59;100173.59;4453610;32;33972;-82
2021/08/09 10:46:33;;;;;;;0.82;0.60;;;;;;;32.06;33.94;100170.88;4453320;32;33973;-82
2021/08/09 10:49:01;;;;;;;1.73;0.60;;;;;;;31.76;34.16;100170.13;4453378;32;33855;-82
2021/08/09 10:51:51;;;;;;;1.40;0.90;;;;;;;31.99;36.82;100172.69;4441894;32;34289;-81
2021/08/09 10:54:28;;;;;;;1.00;0.60;;;;;;;31.46;38.20;100170.28;4454591;32;33012;-81
2021/08/09 10:56:58;;;;;;;1.35;0.73;;;;;;;32.16;34.31;100163.19;4452267;32;34353;-82
2021/08/09 10:59:41;;;;;;;0.80;0.60;;;;;;;32.59;34.38;100157.59;4444466;32;32991;-82
2021/08/09 11:02:34;;;;;;;2.42;0.80;;;;;;;32.43;37.78;100160.66;4469915;32;33218;-82
2021/08/09 11:05:14;;;;;;;0.60;0.60;;;;;;;31.84;34.65;100159.97;4457316;32;34031;-82
2021/08/09 11:07:44;;;;;;;0.82;0.50;;;;;;;32.26;31.85;100157.38;4455570;32;35403;-82
2021/08/09 11:10:12;;;;;;;0.50;0.50;;;;;;;32.56;31.42;100163.47;4456309;32;33460;-82
2021/08/09 11:13:00;;;;;;;0.93;0.47;;;;;;;32.83;32.40;100170.78;4455779;32;33347;-82
2021/08/09 11:15:28;;;;;;;1.10;0.70;;;;;;;33.46;31.82;100158.84;4456019;32;34024;-82
2021/08/09 11:17:58;;;;;;;1.00;0.68;;;;;;;33.55;30.20;100158.44;4456021;32;34863;-81
2021/08/09 11:20:30;;;;;;;0.90;0.70;;;;;;;33.23;29.54;100153.69;4442996;32;33807;-82
2021/08/09 11:23:02;;;;;;;0.88;0.62;;;;;;;33.17;31.46;100147.16;4460944;32;32216;-82
2021/08/09 11:25:31;;;;;;;1.58;0.70;;;;;;;32.98;30.76;100154.25;4439974;32;33932;-82
2021/08/09 11:28:08;;;;;;;0.60;0.60;;;;;;;33.33;29.11;100145.97;4447961;32;35060;-82
2021/08/09 11:30:45;;;;;;;1.20;0.62;;;;;;;33.04;31.67;100156.16;4450322;32;34232;-82
2021/08/09 11:33:34;;;;;;;0.70;0.50;;;;;;;33.13;30.05;100154.94;4453615;32;35363;-82
2021/08/09 11:36:10;;;;;;;1.20;0.50;;;;;;;32.80;29.90;100143.81;4455164;32;34977;-82
2021/08/09 11:38:52;;;;;;;0.90;0.57;;;;;;;32.50;30.59;100154.19;4455798;32;35130;-82
2021/08/09 11:41:22;;;;;;;0.50;0.50;;;;;;;32.29;31.46;100141.41;4442715;32;32831;-81